createdAt,value
2022-08-02T00:02:40.900Z,3.97
2022-08-02T00:05:27.521Z,3.88
2022-08-02T00:08:13.622Z,3.55
2022-08-02T00:11:00.640Z,3.70
2022-08-02T00:13:46.604Z,3.50
2022-08-02T00:16:37.939Z,3.20
2022-08-02T00:19:23.855Z,3.20
2022-08-02T00:22:10.633Z,3.65
2022-08-02T00:24:56.424Z,3.72
2022-08-02T00:27:41.981Z,3.60
2022-08-02T00:30:31.662Z,3.70
2022-08-02T00:34:26.571Z,4.00
2022-08-02T00:36:24.804Z,4.07
2022-08-02T00:39:33.809Z,4.50
2022-08-02T00:42:17.922Z,3.53
2022-08-02T00:45:04.234Z,5.30
2022-08-02T00:47:50.019Z,4.00
2022-08-02T00:50:37.290Z,3.78
2022-08-02T00:53:26.621Z,4.10
2022-08-02T00:56:12.994Z,3.60
2022-08-02T00:59:00.550Z,3.55
2022-08-02T01:01:56.654Z,3.70
2022-08-02T01:04:43.491Z,3.75
2022-08-02T01:07:28.986Z,4.13
2022-08-02T01:10:14.366Z,3.17
2022-08-02T01:12:59.823Z,4.00
2022-08-02T01:15:52.365Z,3.35
2022-08-02T01:18:46.596Z,3.95
2022-08-02T01:21:48.119Z,3.80
2022-08-02T01:24:52.505Z,3.60
2022-08-02T01:28:16.512Z,3.33
2022-08-02T01:31:33.031Z,3.00
2022-08-02T01:34:29.364Z,2.88
2022-08-02T01:37:29.047Z,2.83
2022-08-02T01:40:26.069Z,2.97
2022-08-02T01:43:14.744Z,3.28
2022-08-02T01:46:01.563Z,2.60
2022-08-02T01:48:54.172Z,2.83
2022-08-02T01:52:00.554Z,2.50
2022-08-02T01:54:49.834Z,2.67
2022-08-02T01:57:45.675Z,2.83
2022-08-02T02:00:35.007Z,2.65
2022-08-02T02:03:24.710Z,2.80
2022-08-02T02:06:12.434Z,2.70
2022-08-02T02:09:00.593Z,2.60
2022-08-02T02:12:09.554Z,2.83
2022-08-02T02:14:57.844Z,2.72
2022-08-02T02:18:11.981Z,3.05
2022-08-02T02:20:54.380Z,2.40
2022-08-02T02:23:40.712Z,2.80
2022-08-02T02:26:31.661Z,2.40
2022-08-02T02:29:19.495Z,2.50
2022-08-02T02:32:06.556Z,2.08
2022-08-02T02:34:55.472Z,1.95
2022-08-02T02:37:45.164Z,2.40
2022-08-02T02:40:33.225Z,2.60
2022-08-02T02:43:20.942Z,2.05
2022-08-02T02:46:08.952Z,2.40
2022-08-02T02:48:55.890Z,2.53
2022-08-02T02:51:42.782Z,2.13
2022-08-02T02:54:34.267Z,3.75
2022-08-02T02:57:21.939Z,2.45
2022-08-02T03:00:14.239Z,2.45
2022-08-02T03:03:02.392Z,2.58
2022-08-02T03:05:52.779Z,2.40
2022-08-02T03:08:38.913Z,2.42
2022-08-02T03:11:29.987Z,2.70
2022-08-02T03:14:16.192Z,2.75
2022-08-02T03:17:02.299Z,1.90
2022-08-02T03:19:47.594Z,2.97
2022-08-02T03:22:33.037Z,2.63
2022-08-02T03:25:19.487Z,2.85
2022-08-02T03:28:05.729Z,2.50
2022-08-02T03:30:53.511Z,2.47
2022-08-02T03:33:39.876Z,2.40
2022-08-02T03:36:29.265Z,3.03
2022-08-02T03:39:16.933Z,2.25
2022-08-02T03:42:02.887Z,2.40
2022-08-02T03:44:49.997Z,3.03
2022-08-02T03:47:37.671Z,2.25
2022-08-02T03:50:24.380Z,2.40
2022-08-02T03:53:19.920Z,2.05
2022-08-02T03:56:07.440Z,2.53
2022-08-02T03:59:23.270Z,2.20
2022-08-02T04:02:10.096Z,2.55
2022-08-02T04:04:56.107Z,2.90
2022-08-02T04:08:34.079Z,2.47
2022-08-02T04:11:05.745Z,3.00
2022-08-02T04:13:52.108Z,2.15
2022-08-02T04:16:50.835Z,2.58
2022-08-02T04:19:56.509Z,2.50
2022-08-02T04:22:55.161Z,2.78
2022-08-02T04:25:42.628Z,2.60
2022-08-02T04:28:29.703Z,2.38
2022-08-02T04:31:19.068Z,2.10
2022-08-02T04:34:05.476Z,2.40
2022-08-02T04:36:53.363Z,2.40
2022-08-02T04:39:42.385Z,1.95
2022-08-02T04:42:28.598Z,2.45
2022-08-02T04:45:18.768Z,2.25
2022-08-02T04:48:09.989Z,2.22
2022-08-02T04:50:57.281Z,2.20
2022-08-02T04:53:52.081Z,2.13
2022-08-02T04:56:40.800Z,2.10
2022-08-02T04:59:27.228Z,2.67
2022-08-02T05:02:13.232Z,2.55
2022-08-02T05:05:00.972Z,3.42
2022-08-02T05:07:47.239Z,3.10
2022-08-02T05:10:33.788Z,3.25
2022-08-02T05:13:19.761Z,2.88
2022-08-02T05:16:05.560Z,2.53
2022-08-02T05:18:51.267Z,2.80
2022-08-02T05:21:38.753Z,2.50
2022-08-02T05:24:24.816Z,2.60
2022-08-02T05:27:17.372Z,2.13
2022-08-02T05:30:09.160Z,2.78
2022-08-02T05:32:56.927Z,2.50
2022-08-02T05:35:44.162Z,2.00
2022-08-02T05:38:32.924Z,2.45
2022-08-02T05:41:24.090Z,2.42
2022-08-02T05:44:12.898Z,2.63
2022-08-02T05:47:00.595Z,2.33
2022-08-02T05:49:47.676Z,2.00
2022-08-02T05:52:49.142Z,1.70
2022-08-02T05:55:41.339Z,1.80
2022-08-02T06:01:37.033Z,2.15
2022-08-02T06:04:50.608Z,2.08
2022-08-02T06:07:38.994Z,1.90
2022-08-02T06:10:30.272Z,1.88
2022-08-02T06:13:17.699Z,2.03
2022-08-02T06:16:05.737Z,2.03
2022-08-02T06:19:02.026Z,1.70
2022-08-02T06:22:31.367Z,1.92
2022-08-02T06:24:59.279Z,2.20
2022-08-02T06:27:49.541Z,2.00
2022-08-02T06:30:36.771Z,2.20
2022-08-02T06:33:26.120Z,1.80
2022-08-02T06:36:34.371Z,2.35
2022-08-02T06:39:36.344Z,1.98
2022-08-02T06:42:30.202Z,1.60
2022-08-02T06:45:16.667Z,1.85
2022-08-02T06:48:03.242Z,1.92
2022-08-02T06:50:48.637Z,2.15
2022-08-02T06:53:36.114Z,2.28
2022-08-02T06:56:22.785Z,1.92
2022-08-02T06:59:14.170Z,1.48
2022-08-02T07:02:03.743Z,1.65
2022-08-02T07:04:55.015Z,2.10
2022-08-02T07:07:41.423Z,2.17
2022-08-02T07:10:27.799Z,1.42
2022-08-02T07:13:14.093Z,1.60
2022-08-02T07:15:59.540Z,1.42
2022-08-02T07:18:44.900Z,1.50
2022-08-02T07:21:56.352Z,1.85
2022-08-02T07:24:42.051Z,1.60
2022-08-02T07:27:30.306Z,1.65
2022-08-02T07:30:17.295Z,1.60
2022-08-02T07:33:06.586Z,1.70
2022-08-02T07:35:55.695Z,1.20
2022-08-02T07:38:43.730Z,1.30
2022-08-02T07:41:35.770Z,1.30
2022-08-02T07:44:22.224Z,1.50
2022-08-02T07:47:25.490Z,1.40
2022-08-02T07:50:17.005Z,1.52
2022-08-02T07:53:14.245Z,1.42
2022-08-02T07:56:11.285Z,1.77
2022-08-02T07:59:00.829Z,1.30
2022-08-02T08:01:49.653Z,1.80
2022-08-02T08:04:36.440Z,1.55
2022-08-02T08:07:23.895Z,1.70
2022-08-02T08:10:10.221Z,1.58
2022-08-02T08:12:56.296Z,1.58
2022-08-02T08:15:42.569Z,2.00
2022-08-02T08:18:40.345Z,1.50
2022-08-02T08:21:26.043Z,1.27
2022-08-02T08:24:11.641Z,1.80
2022-08-02T08:26:57.343Z,1.70
2022-08-02T08:29:44.043Z,1.45
2022-08-02T08:32:29.924Z,1.60
2022-08-02T08:35:15.987Z,1.55
2022-08-02T08:38:06.934Z,1.80
2022-08-02T08:40:53.258Z,1.50
2022-08-02T08:43:39.655Z,1.38
2022-08-02T08:46:34.719Z,1.90
2022-08-02T08:49:40.352Z,1.55
2022-08-02T08:53:14.554Z,1.65
2022-08-02T08:56:00.969Z,1.70
2022-08-02T08:58:49.339Z,1.50
2022-08-02T09:01:50.560Z,1.48
2022-08-02T09:04:36.851Z,1.48
2022-08-02T09:07:24.840Z,1.60
2022-08-02T09:10:33.866Z,1.52
2022-08-02T09:13:37.543Z,1.33
2022-08-02T09:16:39.722Z,1.40
2022-08-02T09:19:27.001Z,1.50
2022-08-02T09:22:15.742Z,1.40
2022-08-02T09:25:02.343Z,1.50
2022-08-02T09:27:49.218Z,1.90
2022-08-02T09:30:43.528Z,1.45
2022-08-02T09:33:29.531Z,1.10
2022-08-02T09:36:16.722Z,1.45
2022-08-02T09:39:06.477Z,0.65
2022-08-02T09:42:10.804Z,1.60
2022-08-02T09:45:02.655Z,1.08
2022-08-02T09:47:50.555Z,1.08
2022-08-02T09:50:38.380Z,1.02
2022-08-02T09:53:26.382Z,1.30
2022-08-02T09:56:35.118Z,1.17
2022-08-02T09:59:21.974Z,1.38
2022-08-02T10:02:16.984Z,1.60
2022-08-02T10:05:03.987Z,1.75
2022-08-02T10:07:50.316Z,1.30
2022-08-02T10:10:36.265Z,1.80
2022-08-02T10:13:22.947Z,1.60
2022-08-02T10:16:10.371Z,1.88
2022-08-02T10:18:58.566Z,1.65
2022-08-02T10:21:57.887Z,1.48
2022-08-02T10:24:48.119Z,1.40
2022-08-02T10:28:03.666Z,1.37
2022-08-02T10:30:48.906Z,1.50
2022-08-02T10:33:38.324Z,1.30
2022-08-02T10:36:27.538Z,1.40
2022-08-02T10:39:13.398Z,1.30
2022-08-02T10:42:00.304Z,1.30
2022-08-02T10:44:49.118Z,0.90
2022-08-02T10:47:35.956Z,1.60
2022-08-02T10:50:21.200Z,1.17
2022-08-02T10:53:32.670Z,1.10
2022-08-02T10:56:51.051Z,1.27
2022-08-02T10:59:37.959Z,1.40
2022-08-02T11:03:03.642Z,1.52
2022-08-02T11:06:07.042Z,1.55
2022-08-02T11:09:33.427Z,1.48
2022-08-02T11:12:21.210Z,1.02
2022-08-02T11:15:07.563Z,1.48
2022-08-02T11:18:01.281Z,1.80
2022-08-02T11:20:47.154Z,1.40
2022-08-02T11:23:44.923Z,1.50
2022-08-02T11:26:32.817Z,1.45
2022-08-02T11:29:18.698Z,1.10
2022-08-02T11:32:04.993Z,1.67
2022-08-02T11:34:55.015Z,1.20
2022-08-02T11:37:46.024Z,1.40
2022-08-02T11:43:27.626Z,1.35
2022-08-02T11:46:15.237Z,1.27
2022-08-02T11:49:21.727Z,1.42
2022-08-02T11:52:12.241Z,1.50
2022-08-02T11:54:59.202Z,1.48
2022-08-02T11:58:03.533Z,1.40
2022-08-02T12:00:59.521Z,1.20
2022-08-02T12:03:46.159Z,1.40
2022-08-02T12:06:33.747Z,1.33
2022-08-02T12:09:19.710Z,1.60
2022-08-02T12:12:06.331Z,1.65
2022-08-02T12:14:52.468Z,1.52
2022-08-02T12:17:56.424Z,1.50
2022-08-02T12:20:43.685Z,1.30
2022-08-02T12:23:32.166Z,1.10
2022-08-02T12:26:18.399Z,1.35
2022-08-02T12:29:04.160Z,1.30
2022-08-02T12:31:56.336Z,1.40
2022-08-02T12:34:44.311Z,1.73
2022-08-02T12:37:30.903Z,6.25
2022-08-02T12:40:25.414Z,2.33
2022-08-02T12:43:21.346Z,1.20
2022-08-02T12:46:16.191Z,1.00
2022-08-02T12:49:18.377Z,1.80
2022-08-02T12:52:25.297Z,1.60
2022-08-02T12:55:21.426Z,1.70
2022-08-02T12:58:08.064Z,1.55
2022-08-02T13:00:58.754Z,1.10
2022-08-02T13:04:11.961Z,5.10
2022-08-02T13:06:55.140Z,1.05
2022-08-02T13:09:50.260Z,3.25
2022-08-02T13:12:40.141Z,1.30
2022-08-02T13:15:49.231Z,1.35
2022-08-02T13:18:34.988Z,1.50
2022-08-02T13:21:39.901Z,1.02
2022-08-02T13:24:40.201Z,1.00
2022-08-02T13:27:40.354Z,0.98
2022-08-02T13:30:26.112Z,1.00
2022-08-02T13:33:13.768Z,1.10
2022-08-02T13:35:59.435Z,1.23
2022-08-02T13:38:45.570Z,1.27
2022-08-02T13:41:40.991Z,3.40
2022-08-02T13:44:29.401Z,1.65
2022-08-02T13:47:15.062Z,1.80
2022-08-02T13:50:21.740Z,2.70
2022-08-02T13:53:14.908Z,1.60
2022-08-02T13:56:03.006Z,1.40
2022-08-02T13:58:48.935Z,1.00
2022-08-02T14:01:36.090Z,0.90
2022-08-02T14:04:32.681Z,0.93
2022-08-02T14:07:18.395Z,0.98
2022-08-02T14:10:04.420Z,0.80
2022-08-02T14:12:56.462Z,0.80
2022-08-02T14:15:43.511Z,1.40
2022-08-02T14:18:29.299Z,1.05
2022-08-02T14:21:15.913Z,0.80
2022-08-02T14:24:01.791Z,1.17
2022-08-02T14:26:48.723Z,0.98
2022-08-02T14:29:34.653Z,0.88
2022-08-02T14:32:22.294Z,0.73
2022-08-02T14:35:18.039Z,1.13
2022-08-02T14:38:04.303Z,1.23
2022-08-02T14:40:51.683Z,1.02
2022-08-02T14:43:56.508Z,1.20
2022-08-02T14:46:43.538Z,1.10
2022-08-02T14:49:37.154Z,1.13
2022-08-02T14:52:30.903Z,1.30
2022-08-02T14:55:30.663Z,1.42
2022-08-02T14:58:17.922Z,1.00
2022-08-02T15:01:13.784Z,1.25
2022-08-02T15:04:05.102Z,1.17
2022-08-02T15:06:52.633Z,1.25
2022-08-02T15:09:39.449Z,1.38
2022-08-02T15:12:26.215Z,0.95
2022-08-02T15:15:11.846Z,1.10
2022-08-02T15:17:57.831Z,1.10
2022-08-02T15:20:57.183Z,1.00
2022-08-02T15:23:46.798Z,1.10
2022-08-02T15:26:33.546Z,1.17
2022-08-02T15:29:20.768Z,1.05
2022-08-02T15:32:07.214Z,1.25
2022-08-02T15:34:53.333Z,1.10
2022-08-02T15:37:41.511Z,1.40
2022-08-02T15:40:27.875Z,1.08
2022-08-02T15:43:13.480Z,1.15
2022-08-02T15:46:00.529Z,1.00
2022-08-02T15:48:46.919Z,1.50
2022-08-02T15:51:35.595Z,1.20
2022-08-02T15:54:22.738Z,1.30
2022-08-02T15:57:08.428Z,1.30
2022-08-02T15:59:54.933Z,0.90
2022-08-02T16:02:41.023Z,1.00
2022-08-02T16:05:28.663Z,0.82
2022-08-02T16:08:14.833Z,1.33
2022-08-02T16:11:00.371Z,1.20
2022-08-02T16:13:56.066Z,1.25
2022-08-02T16:16:47.637Z,2.28
2022-08-02T16:19:48.850Z,1.10
2022-08-02T16:22:35.901Z,1.30
2022-08-02T16:25:21.230Z,1.40
2022-08-02T16:28:08.076Z,1.17
2022-08-02T16:31:10.508Z,1.30
2022-08-02T16:34:00.558Z,1.13
2022-08-02T16:36:48.378Z,1.10
2022-08-02T16:39:36.074Z,1.33
2022-08-02T16:42:25.628Z,1.13
2022-08-02T16:45:11.649Z,1.40
2022-08-02T16:48:03.563Z,1.20
2022-08-02T16:50:51.224Z,2.10
2022-08-02T16:53:58.972Z,1.92
2022-08-02T16:56:42.633Z,1.67
2022-08-02T16:59:34.044Z,1.50
2022-08-02T17:02:28.992Z,1.40
2022-08-02T17:05:14.858Z,1.50
2022-08-02T17:08:08.276Z,1.40
2022-08-02T17:11:03.333Z,2.00
2022-08-02T17:13:49.424Z,1.75
2022-08-02T17:16:34.746Z,1.95
2022-08-02T17:19:21.760Z,1.80
2022-08-02T17:22:07.533Z,1.90
2022-08-02T17:24:59.331Z,2.13
2022-08-02T17:27:45.930Z,1.83
2022-08-02T17:30:31.380Z,2.20
2022-08-02T17:33:17.244Z,2.22
2022-08-02T17:36:03.023Z,1.85
2022-08-02T17:38:50.212Z,2.28
2022-08-02T17:41:49.008Z,2.65
2022-08-02T17:44:37.743Z,2.83
2022-08-02T17:47:30.943Z,3.30
2022-08-02T17:50:18.246Z,3.13
2022-08-02T17:53:07.016Z,4.40
2022-08-02T17:55:52.630Z,5.82
2022-08-02T17:58:38.282Z,6.72
2022-08-02T18:01:49.213Z,6.10
2022-08-02T18:04:39.948Z,5.32
2022-08-02T18:07:26.051Z,4.22
2022-08-02T18:10:31.301Z,4.20
2022-08-02T18:13:17.734Z,3.83
2022-08-02T18:16:03.892Z,5.22
2022-08-02T18:18:50.716Z,6.90
2022-08-02T18:21:36.995Z,5.45
2022-08-02T18:24:25.459Z,4.43
2022-08-02T18:27:15.529Z,4.18
2022-08-02T18:30:04.535Z,4.10
2022-08-02T18:33:59.134Z,4.80
2022-08-02T18:35:57.462Z,4.35
2022-08-02T18:38:45.651Z,4.30
2022-08-02T18:41:32.009Z,4.22
2022-08-02T18:44:21.161Z,3.17
2022-08-02T18:47:06.858Z,2.88
2022-08-02T18:49:56.285Z,2.65
2022-08-02T18:52:42.163Z,3.33
2022-08-02T18:55:59.612Z,2.63
2022-08-02T18:58:40.650Z,2.63
2022-08-02T19:01:33.586Z,2.13
2022-08-02T19:04:27.493Z,2.20
2022-08-02T19:07:14.533Z,2.45
2022-08-02T19:10:00.616Z,2.53
2022-08-02T19:12:46.599Z,2.15
2022-08-02T19:15:38.263Z,2.20
2022-08-02T19:18:26.930Z,2.20
2022-08-02T19:21:16.100Z,2.15
2022-08-02T19:24:01.668Z,2.28
2022-08-02T19:26:53.743Z,2.20
2022-08-02T19:29:50.832Z,2.17
2022-08-02T19:32:42.298Z,2.38
2022-08-02T19:36:01.779Z,2.30
2022-08-02T19:38:58.110Z,2.13
2022-08-02T19:41:46.908Z,2.92
2022-08-02T19:44:36.401Z,2.08
2022-08-02T19:47:22.942Z,1.77
2022-08-02T19:50:13.003Z,2.08
2022-08-02T19:52:59.432Z,2.78
2022-08-02T19:56:00.687Z,2.90
2022-08-02T19:58:52.087Z,2.60
2022-08-02T20:01:40.278Z,2.88
2022-08-02T20:04:28.393Z,2.67
2022-08-02T20:07:13.939Z,2.53
2022-08-02T20:10:10.860Z,2.55
2022-08-02T20:12:56.839Z,2.47
2022-08-02T20:15:56.051Z,3.22
2022-08-02T20:18:42.393Z,2.60
2022-08-02T20:21:35.638Z,3.15
2022-08-02T20:24:22.770Z,3.13
2022-08-02T20:27:16.563Z,3.17
2022-08-02T20:30:14.306Z,2.95
2022-08-02T20:33:21.887Z,3.60
2022-08-02T20:36:12.411Z,3.75
2022-08-02T20:39:04.673Z,4.07
2022-08-02T20:41:53.022Z,3.80
2022-08-02T20:44:46.889Z,4.30
2022-08-02T20:47:39.098Z,4.13
2022-08-02T20:50:44.964Z,4.72
2022-08-02T20:53:31.035Z,5.32
2022-08-02T20:56:17.313Z,5.20
2022-08-02T20:59:17.819Z,5.45
2022-08-02T21:02:07.555Z,4.85
2022-08-02T21:07:55.013Z,4.20
2022-08-02T21:10:43.717Z,3.63
2022-08-02T21:13:46.854Z,3.70
2022-08-02T21:16:42.609Z,3.30
2022-08-02T21:19:29.612Z,3.28
2022-08-02T21:22:17.183Z,3.47
2022-08-02T21:25:15.706Z,3.53
2022-08-02T21:28:01.558Z,4.07
2022-08-02T21:30:47.889Z,2.92
2022-08-02T21:33:56.845Z,3.30
2022-08-02T21:36:38.880Z,3.00
2022-08-02T21:39:26.361Z,3.42
2022-08-02T21:42:11.825Z,4.93
2022-08-02T21:45:17.458Z,4.43
2022-08-02T21:48:05.722Z,4.35
2022-08-02T21:50:54.172Z,3.30
2022-08-02T21:53:42.126Z,3.88
2022-08-02T21:56:28.389Z,3.80
2022-08-02T21:59:16.185Z,3.33
2022-08-02T22:02:02.530Z,2.88
2022-08-02T22:04:49.560Z,3.30
2022-08-02T22:07:38.502Z,3.47
2022-08-02T22:10:24.212Z,2.60
2022-08-02T22:13:14.365Z,2.95
2022-08-02T22:16:07.670Z,3.03
2022-08-02T22:18:54.990Z,3.00
2022-08-02T22:21:46.713Z,2.83
2022-08-02T22:24:41.289Z,3.97
2022-08-02T22:28:35.255Z,2.97
2022-08-02T22:30:33.018Z,2.65
2022-08-02T22:33:37.005Z,3.15
2022-08-02T22:36:22.447Z,2.80
2022-08-02T22:39:19.087Z,2.80
2022-08-02T22:42:07.293Z,2.63
2022-08-02T22:44:52.523Z,2.38
2022-08-02T22:47:38.674Z,2.83
2022-08-02T22:50:36.896Z,2.30
2022-08-02T22:53:24.759Z,2.80
2022-08-02T22:56:22.488Z,2.08
2022-08-02T23:02:03.175Z,2.00
2022-08-02T23:04:48.938Z,2.15
2022-08-02T23:07:36.317Z,2.28
2022-08-02T23:10:24.463Z,2.20
2022-08-02T23:13:10.132Z,2.50
2022-08-02T23:16:14.090Z,2.55
2022-08-02T23:19:18.496Z,2.00
2022-08-02T23:22:04.041Z,3.22
2022-08-02T23:24:50.259Z,2.08
2022-08-02T23:27:36.233Z,2.00
2022-08-02T23:30:23.085Z,2.38
2022-08-02T23:33:08.617Z,2.05
2022-08-02T23:35:54.132Z,2.58
2022-08-02T23:38:39.654Z,2.25
2022-08-02T23:41:25.401Z,2.10
2022-08-02T23:44:13.969Z,2.10
2022-08-02T23:47:00.552Z,2.42
2022-08-02T23:49:46.306Z,1.98
2022-08-02T23:52:31.753Z,2.08
2022-08-02T23:55:17.363Z,1.88
2022-08-02T23:58:03.146Z,2.25
